McCallsburg, Iowa
Current Conditions -  °F | °C
As of 5:53 AM on Wednesday 28 Jan 2015 (Local Time) from KAMW Reporting Station
Haze Haze  
Wind Chill: 18°   Ceiling: 200
Heat Index: 29°   Visibility: 2mi
Dew Point: 27°   Wind: 14mph
Humidity: 92%   Direction: 130°SE
Pressure: 30.03"   Gusts: 24mph
Location:  42.17°N, 93.39°W
Report Text: KAMW 281153Z AUTO 13012G21KT 2SM BR OVC002 M02/M03 A3003 RMK AO2 SLP178 T10171028 11017 21017 58013
Loading
Personal Weather Stations






























Interactive Weather Map New forecast layout! Learn more

10-Day Weather Forecast

Advertisements
Track Severe Weather on mobile